sensor_id;sensor_type;location;lat;lon;timestamp;pressure;altitude;pressure_sealevel;temperature
15607;BMP180;7865;50.918;4.510;2023-01-19T00:02:25;99754.00;;;0.60
15607;BMP180;7865;50.918;4.510;2023-01-19T00:07:28;99753.00;;;0.70
15607;BMP180;7865;50.918;4.510;2023-01-19T00:12:30;99757.00;;;0.70
15607;BMP180;7865;50.918;4.510;2023-01-19T00:17:32;99762.00;;;0.70
15607;BMP180;7865;50.918;4.510;2023-01-19T00:22:34;99762.00;;;0.70
15607;BMP180;7865;50.918;4.510;2023-01-19T00:27:36;99759.00;;;0.70
15607;BMP180;7865;50.918;4.510;2023-01-19T00:32:38;99764.00;;;0.70
15607;BMP180;7865;50.918;4.510;2023-01-19T00:37:40;99774.00;;;0.70
15607;BMP180;7865;50.918;4.510;2023-01-19T00:42:42;99759.00;;;0.80
15607;BMP180;7865;50.918;4.510;2023-01-19T00:47:49;99755.00;;;0.80
15607;BMP180;7865;50.918;4.510;2023-01-19T00:52:58;99767.00;;;0.80
15607;BMP180;7865;50.918;4.510;2023-01-19T00:58:03;99769.00;;;0.70
15607;BMP180;7865;50.918;4.510;2023-01-19T01:03:07;99769.00;;;0.70
15607;BMP180;7865;50.918;4.510;2023-01-19T01:08:09;99782.00;;;0.60
15607;BMP180;7865;50.918;4.510;2023-01-19T01:13:11;99778.00;;;0.60
15607;BMP180;7865;50.918;4.510;2023-01-19T01:18:24;99782.00;;;0.60
15607;BMP180;7865;50.918;4.510;2023-01-19T01:23:29;99787.00;;;0.60
15607;BMP180;7865;50.918;4.510;2023-01-19T01:28:31;99777.00;;;0.50
15607;BMP180;7865;50.918;4.510;2023-01-19T01:33:33;99781.00;;;0.50
15607;BMP180;7865;50.918;4.510;2023-01-19T01:38:42;99791.00;;;0.50
15607;BMP180;7865;50.918;4.510;2023-01-19T01:43:51;99794.00;;;0.40
15607;BMP180;7865;50.918;4.510;2023-01-19T01:49:12;99793.00;;;0.40
15607;BMP180;7865;50.918;4.510;2023-01-19T01:54:20;99807.00;;;0.30
15607;BMP180;7865;50.918;4.510;2023-01-19T01:59:33;99790.00;;;0.30
15607;BMP180;7865;50.918;4.510;2023-01-19T02:04:44;99789.00;;;0.30
15607;BMP180;7865;50.918;4.510;2023-01-19T02:09:47;99792.00;;;0.30
15607;BMP180;7865;50.918;4.510;2023-01-19T02:15:18;99801.00;;;0.20
15607;BMP180;7865;50.918;4.510;2023-01-19T02:20:24;99803.00;;;0.20
15607;BMP180;7865;50.918;4.510;2023-01-19T02:25:28;99795.00;;;0.20
15607;BMP180;7865;50.918;4.510;2023-01-19T02:30:30;99813.00;;;0.30
15607;BMP180;7865;50.918;4.510;2023-01-19T02:35:35;99808.00;;;0.30
15607;BMP180;7865;50.918;4.510;2023-01-19T02:40:41;99813.00;;;0.40
15607;BMP180;7865;50.918;4.510;2023-01-19T02:45:46;99822.00;;;0.50
15607;BMP180;7865;50.918;4.510;2023-01-19T02:50:51;99812.00;;;0.50
15607;BMP180;7865;50.918;4.510;2023-01-19T03:02:35;99832.00;;;0.60
15607;BMP180;7865;50.918;4.510;2023-01-19T03:18:07;99860.00;;;0.70
15607;BMP180;7865;50.918;4.510;2023-01-19T03:23:11;99860.00;;;0.70
15607;BMP180;7865;50.918;4.510;2023-01-19T03:28:18;99875.00;;;0.80
15607;BMP180;7865;50.918;4.510;2023-01-19T03:33:27;99895.00;;;0.90
15607;BMP180;7865;50.918;4.510;2023-01-19T03:38:34;99870.00;;;0.90
15607;BMP180;7865;50.918;4.510;2023-01-19T03:43:37;99863.00;;;0.70
15607;BMP180;7865;50.918;4.510;2023-01-19T03:48:40;99874.00;;;0.50
15607;BMP180;7865;50.918;4.510;2023-01-19T03:53:42;99891.00;;;0.40
15607;BMP180;7865;50.918;4.510;2023-01-19T03:58:45;99871.00;;;0.40
15607;BMP180;7865;50.918;4.510;2023-01-19T04:03:48;99857.00;;;0.40
15607;BMP180;7865;50.918;4.510;2023-01-19T04:08:51;99871.00;;;0.40
15607;BMP180;7865;50.918;4.510;2023-01-19T04:13:52;99877.00;;;0.40
15607;BMP180;7865;50.918;4.510;2023-01-19T04:19:00;99876.00;;;0.40
15607;BMP180;7865;50.918;4.510;2023-01-19T04:24:05;99872.00;;;0.40
15607;BMP180;7865;50.918;4.510;2023-01-19T04:29:07;99872.00;;;0.40
15607;BMP180;7865;50.918;4.510;2023-01-19T04:34:09;99884.00;;;0.40
15607;BMP180;7865;50.918;4.510;2023-01-19T04:39:11;99866.00;;;0.40
15607;BMP180;7865;50.918;4.510;2023-01-19T04:44:13;99873.00;;;0.30
15607;BMP180;7865;50.918;4.510;2023-01-19T04:49:15;99873.00;;;0.30
15607;BMP180;7865;50.918;4.510;2023-01-19T04:54:17;99866.00;;;0.30
15607;BMP180;7865;50.918;4.510;2023-01-19T04:59:19;99877.00;;;0.30
15607;BMP180;7865;50.918;4.510;2023-01-19T05:04:21;99888.00;;;0.30
15607;BMP180;7865;50.918;4.510;2023-01-19T05:09:23;99893.00;;;0.20
15607;BMP180;7865;50.918;4.510;2023-01-19T05:14:25;99889.00;;;0.20
15607;BMP180;7865;50.918;4.510;2023-01-19T05:19:27;99890.00;;;0.20
15607;BMP180;7865;50.918;4.510;2023-01-19T05:24:29;99900.00;;;0.20
15607;BMP180;7865;50.918;4.510;2023-01-19T05:29:31;99888.00;;;0.20
15607;BMP180;7865;50.918;4.510;2023-01-19T05:34:33;99889.00;;;0.10
15607;BMP180;7865;50.918;4.510;2023-01-19T05:39:35;99895.00;;;0.10
15607;BMP180;7865;50.918;4.510;2023-01-19T05:44:37;99906.00;;;0.10
15607;BMP180;7865;50.918;4.510;2023-01-19T05:49:39;99902.00;;;0.10
15607;BMP180;7865;50.918;4.510;2023-01-19T05:54:41;99904.00;;;0.10
15607;BMP180;7865;50.918;4.510;2023-01-19T05:59:43;99904.00;;;0.00
15607;BMP180;7865;50.918;4.510;2023-01-19T06:04:45;99911.00;;;0.00
15607;BMP180;7865;50.918;4.510;2023-01-19T06:09:49;99910.00;;;0.10
15607;BMP180;7865;50.918;4.510;2023-01-19T06:14:55;99915.00;;;0.00
15607;BMP180;7865;50.918;4.510;2023-01-19T06:19:57;99911.00;;;0.00
15607;BMP180;7865;50.918;4.510;2023-01-19T06:24:59;99915.00;;;-0.10
15607;BMP180;7865;50.918;4.510;2023-01-19T06:30:02;99920.00;;;-0.10
15607;BMP180;7865;50.918;4.510;2023-01-19T06:35:05;99920.00;;;-0.10
15607;BMP180;7865;50.918;4.510;2023-01-19T06:40:09;99924.00;;;-0.10
15607;BMP180;7865;50.918;4.510;2023-01-19T06:45:12;99943.00;;;-0.10
15607;BMP180;7865;50.918;4.510;2023-01-19T06:50:14;99940.00;;;0.00
15607;BMP180;7865;50.918;4.510;2023-01-19T06:55:16;99951.00;;;0.10
15607;BMP180;7865;50.918;4.510;2023-01-19T07:00:18;99958.00;;;0.10
15607;BMP180;7865;50.918;4.510;2023-01-19T07:05:23;99962.00;;;0.10
15607;BMP180;7865;50.918;4.510;2023-01-19T07:10:25;99970.00;;;0.10
15607;BMP180;7865;50.918;4.510;2023-01-19T07:15:47;99965.00;;;0.10
15607;BMP180;7865;50.918;4.510;2023-01-19T07:20:48;99971.00;;;0.10
15607;BMP180;7865;50.918;4.510;2023-01-19T07:25:50;99973.00;;;0.10
15607;BMP180;7865;50.918;4.510;2023-01-19T07:30:53;99980.00;;;0.10
15607;BMP180;7865;50.918;4.510;2023-01-19T07:35:56;99983.00;;;0.10
15607;BMP180;7865;50.918;4.510;2023-01-19T07:41:02;99990.00;;;0.10
15607;BMP180;7865;50.918;4.510;2023-01-19T07:46:05;99996.00;;;0.20
15607;BMP180;7865;50.918;4.510;2023-01-19T07:51:09;100004.00;;;0.10
15607;BMP180;7865;50.918;4.510;2023-01-19T07:56:13;100010.00;;;0.10
15607;BMP180;7865;50.918;4.510;2023-01-19T08:01:15;100028.00;;;0.20
15607;BMP180;7865;50.918;4.510;2023-01-19T08:06:22;100033.00;;;0.30
15607;BMP180;7865;50.918;4.510;2023-01-19T08:11:24;100036.00;;;0.60
15607;BMP180;7865;50.918;4.510;2023-01-19T08:16:27;100037.00;;;0.70
15607;BMP180;7865;50.918;4.510;2023-01-19T08:21:29;100039.00;;;0.90
15607;BMP180;7865;50.918;4.510;2023-01-19T08:26:33;100051.00;;;0.90
15607;BMP180;7865;50.918;4.510;2023-01-19T08:31:35;100063.00;;;0.90
15607;BMP180;7865;50.918;4.510;2023-01-19T08:36:38;100059.00;;;0.90
15607;BMP180;7865;50.918;4.510;2023-01-19T08:41:40;100074.00;;;1.00
15607;BMP180;7865;50.918;4.510;2023-01-19T08:46:42;100081.00;;;1.10
15607;BMP180;7865;50.918;4.510;2023-01-19T08:51:44;100094.00;;;1.20
15607;BMP180;7865;50.918;4.510;2023-01-19T08:56:49;100103.00;;;1.20
15607;BMP180;7865;50.918;4.510;2023-01-19T09:01:51;100104.00;;;1.40
15607;BMP180;7865;50.918;4.510;2023-01-19T09:06:53;100107.00;;;1.70
15607;BMP180;7865;50.918;4.510;2023-01-19T09:11:55;100115.00;;;2.00
15607;BMP180;7865;50.918;4.510;2023-01-19T09:16:57;100118.00;;;2.30
15607;BMP180;7865;50.918;4.510;2023-01-19T09:21:59;100116.00;;;2.00
15607;BMP180;7865;50.918;4.510;2023-01-19T09:27:02;100123.00;;;2.60
15607;BMP180;7865;50.918;4.510;2023-01-19T09:32:04;100119.00;;;3.40
15607;BMP180;7865;50.918;4.510;2023-01-19T09:37:06;100117.00;;;3.20
15607;BMP180;7865;50.918;4.510;2023-01-19T09:47:28;100121.00;;;3.30
15607;BMP180;7865;50.918;4.510;2023-01-19T09:52:35;100133.00;;;3.10
15607;BMP180;7865;50.918;4.510;2023-01-19T09:57:38;100124.00;;;3.10
15607;BMP180;7865;50.918;4.510;2023-01-19T10:02:47;100119.00;;;2.90
15607;BMP180;7865;50.918;4.510;2023-01-19T10:13:38;100143.00;;;4.00
15607;BMP180;7865;50.918;4.510;2023-01-19T10:18:46;100141.00;;;3.70
15607;BMP180;7865;50.918;4.510;2023-01-19T10:29:06;100140.00;;;3.50
15607;BMP180;7865;50.918;4.510;2023-01-19T10:34:11;100136.00;;;3.50
15607;BMP180;7865;50.918;4.510;2023-01-19T10:39:27;100162.00;;;3.70
15607;BMP180;7865;50.918;4.510;2023-01-19T10:44:35;100150.00;;;3.60
15607;BMP180;7865;50.918;4.510;2023-01-19T10:49:39;100146.00;;;3.50
15607;BMP180;7865;50.918;4.510;2023-01-19T10:54:43;100156.00;;;3.50
15607;BMP180;7865;50.918;4.510;2023-01-19T10:59:48;100153.00;;;3.50
15607;BMP180;7865;50.918;4.510;2023-01-19T11:05:23;100158.00;;;3.50
15607;BMP180;7865;50.918;4.510;2023-01-19T11:10:28;100152.00;;;3.80
15607;BMP180;7865;50.918;4.510;2023-01-19T11:15:34;100147.00;;;3.90
15607;BMP180;7865;50.918;4.510;2023-01-19T11:20:51;100147.00;;;3.60
15607;BMP180;7865;50.918;4.510;2023-01-19T11:25:56;100147.00;;;3.70
15607;BMP180;7865;50.918;4.510;2023-01-19T11:31:01;100147.00;;;3.80
15607;BMP180;7865;50.918;4.510;2023-01-19T11:36:06;100149.00;;;3.90
15607;BMP180;7865;50.918;4.510;2023-01-19T11:41:29;100148.00;;;4.00
15607;BMP180;7865;50.918;4.510;2023-01-19T11:46:32;100150.00;;;4.00
15607;BMP180;7865;50.918;4.510;2023-01-19T11:51:48;100154.00;;;3.90
15607;BMP180;7865;50.918;4.510;2023-01-19T11:56:52;100154.00;;;4.10
15607;BMP180;7865;50.918;4.510;2023-01-19T12:01:58;100153.00;;;4.10
15607;BMP180;7865;50.918;4.510;2023-01-19T12:07:03;100146.00;;;4.10
15607;BMP180;7865;50.918;4.510;2023-01-19T12:12:37;100133.00;;;4.00
15607;BMP180;7865;50.918;4.510;2023-01-19T12:17:45;100134.00;;;4.20
15607;BMP180;7865;50.918;4.510;2023-01-19T12:23:11;100135.00;;;4.40
15607;BMP180;7865;50.918;4.510;2023-01-19T12:28:15;100133.00;;;4.80
15607;BMP180;7865;50.918;4.510;2023-01-19T12:43:35;100118.00;;;5.00
15607;BMP180;7865;50.918;4.510;2023-01-19T12:48:37;100120.00;;;4.90
15607;BMP180;7865;50.918;4.510;2023-01-19T12:53:52;100115.00;;;5.20
15607;BMP180;7865;50.918;4.510;2023-01-19T12:58:54;100108.00;;;5.70
15607;BMP180;7865;50.918;4.510;2023-01-19T13:04:01;100096.00;;;6.60
15607;BMP180;7865;50.918;4.510;2023-01-19T13:09:36;100096.00;;;7.30
15607;BMP180;7865;50.918;4.510;2023-01-19T13:14:41;100094.00;;;7.60
15607;BMP180;7865;50.918;4.510;2023-01-19T13:19:51;100104.00;;;7.10
15607;BMP180;7865;50.918;4.510;2023-01-19T13:25:06;100111.00;;;6.10
15607;BMP180;7865;50.918;4.510;2023-01-19T13:30:15;100121.00;;;5.40
15607;BMP180;7865;50.918;4.510;2023-01-19T13:35:19;100121.00;;;4.90
15607;BMP180;7865;50.918;4.510;2023-01-19T13:40:24;100116.00;;;4.60
15607;BMP180;7865;50.918;4.510;2023-01-19T13:45:31;100122.00;;;4.50
15607;BMP180;7865;50.918;4.510;2023-01-19T13:50:36;100124.00;;;4.20
15607;BMP180;7865;50.918;4.510;2023-01-19T13:55:40;100118.00;;;4.10
15607;BMP180;7865;50.918;4.510;2023-01-19T14:00:44;100119.00;;;4.20
15607;BMP180;7865;50.918;4.510;2023-01-19T14:05:49;100117.00;;;4.20
15607;BMP180;7865;50.918;4.510;2023-01-19T14:16:15;100120.00;;;3.80
15607;BMP180;7865;50.918;4.510;2023-01-19T14:21:18;100122.00;;;3.80
15607;BMP180;7865;50.918;4.510;2023-01-19T14:36:50;100120.00;;;4.00
15607;BMP180;7865;50.918;4.510;2023-01-19T14:41:53;100133.00;;;3.90
15607;BMP180;7865;50.918;4.510;2023-01-19T14:46:57;100127.00;;;3.80
15607;BMP180;7865;50.918;4.510;2023-01-19T14:52:19;100140.00;;;3.70
15607;BMP180;7865;50.918;4.510;2023-01-19T14:57:22;100138.00;;;3.80
15607;BMP180;7865;50.918;4.510;2023-01-19T15:02:23;100136.00;;;3.90
15607;BMP180;7865;50.918;4.510;2023-01-19T15:07:26;100139.00;;;3.80
15607;BMP180;7865;50.918;4.510;2023-01-19T15:12:29;100141.00;;;3.50
15607;BMP180;7865;50.918;4.510;2023-01-19T15:17:31;100150.00;;;3.30
15607;BMP180;7865;50.918;4.510;2023-01-19T15:22:33;100145.00;;;3.10
15607;BMP180;7865;50.918;4.510;2023-01-19T15:27:35;100153.00;;;2.90
15607;BMP180;7865;50.918;4.510;2023-01-19T15:32:37;100151.00;;;2.80
15607;BMP180;7865;50.918;4.510;2023-01-19T15:37:44;100163.00;;;2.60
15607;BMP180;7865;50.918;4.510;2023-01-19T15:42:46;100159.00;;;2.40
15607;BMP180;7865;50.918;4.510;2023-01-19T15:47:48;100156.00;;;2.30
15607;BMP180;7865;50.918;4.510;2023-01-19T15:52:50;100160.00;;;2.10
15607;BMP180;7865;50.918;4.510;2023-01-19T15:57:52;100176.00;;;2.00
15607;BMP180;7865;50.918;4.510;2023-01-19T16:02:54;100180.00;;;1.80
15607;BMP180;7865;50.918;4.510;2023-01-19T16:07:56;100182.00;;;1.70
15607;BMP180;7865;50.918;4.510;2023-01-19T16:13:00;100207.00;;;1.70
15607;BMP180;7865;50.918;4.510;2023-01-19T16:18:03;100200.00;;;1.50
15607;BMP180;7865;50.918;4.510;2023-01-19T16:23:05;100206.00;;;1.30
15607;BMP180;7865;50.918;4.510;2023-01-19T16:28:15;100197.00;;;1.30
15607;BMP180;7865;50.918;4.510;2023-01-19T16:33:17;100206.00;;;1.20
15607;BMP180;7865;50.918;4.510;2023-01-19T16:38:21;100202.00;;;1.20
15607;BMP180;7865;50.918;4.510;2023-01-19T16:43:23;100212.00;;;1.10
15607;BMP180;7865;50.918;4.510;2023-01-19T16:48:29;100223.00;;;1.00
15607;BMP180;7865;50.918;4.510;2023-01-19T16:53:33;100231.00;;;0.90
15607;BMP180;7865;50.918;4.510;2023-01-19T16:58:36;100229.00;;;0.80
15607;BMP180;7865;50.918;4.510;2023-01-19T17:03:39;100230.00;;;0.80
15607;BMP180;7865;50.918;4.510;2023-01-19T17:08:41;100230.00;;;0.70
15607;BMP180;7865;50.918;4.510;2023-01-19T17:13:43;100236.00;;;0.70
15607;BMP180;7865;50.918;4.510;2023-01-19T17:18:45;100229.00;;;0.60
15607;BMP180;7865;50.918;4.510;2023-01-19T17:23:49;100238.00;;;0.50
15607;BMP180;7865;50.918;4.510;2023-01-19T17:29:04;100228.00;;;0.60
15607;BMP180;7865;50.918;4.510;2023-01-19T17:34:06;100240.00;;;0.70
15607;BMP180;7865;50.918;4.510;2023-01-19T17:39:24;100256.00;;;0.70
15607;BMP180;7865;50.918;4.510;2023-01-19T17:44:26;100267.00;;;0.70
15607;BMP180;7865;50.918;4.510;2023-01-19T17:49:28;100279.00;;;0.70
15607;BMP180;7865;50.918;4.510;2023-01-19T17:54:30;100276.00;;;0.80
15607;BMP180;7865;50.918;4.510;2023-01-19T17:59:32;100294.00;;;0.90
15607;BMP180;7865;50.918;4.510;2023-01-19T18:04:36;100285.00;;;1.00
15607;BMP180;7865;50.918;4.510;2023-01-19T18:09:38;100293.00;;;1.10
15607;BMP180;7865;50.918;4.510;2023-01-19T18:14:40;100277.00;;;1.20
15607;BMP180;7865;50.918;4.510;2023-01-19T18:19:42;100280.00;;;1.20
15607;BMP180;7865;50.918;4.510;2023-01-19T18:24:45;100271.00;;;1.10
15607;BMP180;7865;50.918;4.510;2023-01-19T18:29:47;100267.00;;;1.00
15607;BMP180;7865;50.918;4.510;2023-01-19T18:34:49;100276.00;;;0.90
15607;BMP180;7865;50.918;4.510;2023-01-19T18:39:54;100267.00;;;0.80
15607;BMP180;7865;50.918;4.510;2023-01-19T18:45:00;100264.00;;;0.70
15607;BMP180;7865;50.918;4.510;2023-01-19T18:50:02;100264.00;;;0.50
15607;BMP180;7865;50.918;4.510;2023-01-19T18:55:05;100272.00;;;0.40
15607;BMP180;7865;50.918;4.510;2023-01-19T19:00:07;100269.00;;;0.40
15607;BMP180;7865;50.918;4.510;2023-01-19T19:05:10;100268.00;;;0.40
15607;BMP180;7865;50.918;4.510;2023-01-19T19:10:11;100278.00;;;0.30
15607;BMP180;7865;50.918;4.510;2023-01-19T19:15:14;100277.00;;;0.30
15607;BMP180;7865;50.918;4.510;2023-01-19T19:20:16;100285.00;;;0.20
15607;BMP180;7865;50.918;4.510;2023-01-19T19:25:18;100297.00;;;0.20
15607;BMP180;7865;50.918;4.510;2023-01-19T19:30:20;100300.00;;;0.20
15607;BMP180;7865;50.918;4.510;2023-01-19T19:35:22;100300.00;;;0.20
15607;BMP180;7865;50.918;4.510;2023-01-19T19:40:26;100316.00;;;0.20
15607;BMP180;7865;50.918;4.510;2023-01-19T19:45:28;100320.00;;;0.10
15607;BMP180;7865;50.918;4.510;2023-01-19T19:50:30;100321.00;;;0.00
15607;BMP180;7865;50.918;4.510;2023-01-19T19:55:35;100325.00;;;0.00
15607;BMP180;7865;50.918;4.510;2023-01-19T20:00:36;100322.00;;;0.10
15607;BMP180;7865;50.918;4.510;2023-01-19T20:05:39;100338.00;;;0.10
15607;BMP180;7865;50.918;4.510;2023-01-19T20:10:41;100335.00;;;0.10
15607;BMP180;7865;50.918;4.510;2023-01-19T20:15:43;100349.00;;;0.10
15607;BMP180;7865;50.918;4.510;2023-01-19T20:20:46;100361.00;;;0.00
15607;BMP180;7865;50.918;4.510;2023-01-19T20:25:47;100367.00;;;-0.10
15607;BMP180;7865;50.918;4.510;2023-01-19T20:30:49;100367.00;;;-0.20
15607;BMP180;7865;50.918;4.510;2023-01-19T20:35:51;100365.00;;;-0.20
15607;BMP180;7865;50.918;4.510;2023-01-19T20:40:53;100372.00;;;-0.10
15607;BMP180;7865;50.918;4.510;2023-01-19T20:45:56;100377.00;;;0.00
15607;BMP180;7865;50.918;4.510;2023-01-19T20:51:09;100391.00;;;0.30
15607;BMP180;7865;50.918;4.510;2023-01-19T20:56:13;100399.00;;;0.40
15607;BMP180;7865;50.918;4.510;2023-01-19T21:06:19;100414.00;;;0.40
15607;BMP180;7865;50.918;4.510;2023-01-19T21:11:22;100433.00;;;0.40
15607;BMP180;7865;50.918;4.510;2023-01-19T21:16:27;100433.00;;;0.60
15607;BMP180;7865;50.918;4.510;2023-01-19T21:21:29;100446.00;;;0.70
15607;BMP180;7865;50.918;4.510;2023-01-19T21:26:32;100461.00;;;0.70
15607;BMP180;7865;50.918;4.510;2023-01-19T21:31:34;100460.00;;;0.70
15607;BMP180;7865;50.918;4.510;2023-01-19T21:36:36;100462.00;;;0.60
15607;BMP180;7865;50.918;4.510;2023-01-19T21:41:38;100476.00;;;0.50
15607;BMP180;7865;50.918;4.510;2023-01-19T21:46:43;100486.00;;;0.60
15607;BMP180;7865;50.918;4.510;2023-01-19T21:51:45;100492.00;;;0.60
15607;BMP180;7865;50.918;4.510;2023-01-19T21:56:48;100487.00;;;0.70
15607;BMP180;7865;50.918;4.510;2023-01-19T22:01:50;100492.00;;;0.70
15607;BMP180;7865;50.918;4.510;2023-01-19T22:06:52;100500.00;;;0.70
15607;BMP180;7865;50.918;4.510;2023-01-19T22:11:54;100500.00;;;0.70
15607;BMP180;7865;50.918;4.510;2023-01-19T22:16:56;100504.00;;;0.70
15607;BMP180;7865;50.918;4.510;2023-01-19T22:21:58;100507.00;;;0.60
15607;BMP180;7865;50.918;4.510;2023-01-19T22:27:00;100520.00;;;0.70
15607;BMP180;7865;50.918;4.510;2023-01-19T22:32:02;100526.00;;;0.70
15607;BMP180;7865;50.918;4.510;2023-01-19T22:37:04;100533.00;;;0.70
15607;BMP180;7865;50.918;4.510;2023-01-19T22:42:07;100533.00;;;0.70
15607;BMP180;7865;50.918;4.510;2023-01-19T22:47:09;100539.00;;;0.70
15607;BMP180;7865;50.918;4.510;2023-01-19T22:52:10;100536.00;;;0.80
15607;BMP180;7865;50.918;4.510;2023-01-19T22:57:12;100537.00;;;0.80
15607;BMP180;7865;50.918;4.510;2023-01-19T23:02:14;100532.00;;;0.80
15607;BMP180;7865;50.918;4.510;2023-01-19T23:07:16;100537.00;;;0.80
15607;BMP180;7865;50.918;4.510;2023-01-19T23:12:18;100544.00;;;0.70
15607;BMP180;7865;50.918;4.510;2023-01-19T23:17:20;100541.00;;;0.70
15607;BMP180;7865;50.918;4.510;2023-01-19T23:22:22;100541.00;;;0.70
15607;BMP180;7865;50.918;4.510;2023-01-19T23:27:24;100526.00;;;0.60
15607;BMP180;7865;50.918;4.510;2023-01-19T23:32:26;100543.00;;;0.60
15607;BMP180;7865;50.918;4.510;2023-01-19T23:37:27;100544.00;;;0.60
15607;BMP180;7865;50.918;4.510;2023-01-19T23:42:29;100544.00;;;0.60
15607;BMP180;7865;50.918;4.510;2023-01-19T23:47:34;100546.00;;;0.60
15607;BMP180;7865;50.918;4.510;2023-01-19T23:52:37;100550.00;;;0.60
15607;BMP180;7865;50.918;4.510;2023-01-19T23:57:39;100552.00;;;0.60
